Time,TemperatureF,DewpointF,PressureIn,WindDirection,WindDirectionDegrees,WindSpeedMPH,WindSpeedGustMPH,Humidity,HourlyPrecipIn,Conditions,Clouds,dailyrainin,SoftwareType,DateUTC
2013-02-12 00:12:00,24.1,16.0,30.18,East,84,0.0,-999.0,70,-99.99,,,0.00,weatherlink.com 1.10,2013-02-12 07:12:00,
2013-02-12 00:27:00,23.5,15.0,30.23,East,84,0.0,-999.0,71,-99.99,,,0.00,weatherlink.com 1.10,2013-02-12 07:27:00,
2013-02-12 00:42:00,23.5,16.0,30.23,East,84,0.0,-999.0,73,-99.99,,,0.00,weatherlink.com 1.10,2013-02-12 07:42:00,
2013-02-12 00:57:00,23.8,16.0,30.24,East,84,0.0,-999.0,72,-99.99,,,0.00,weatherlink.com 1.10,2013-02-12 07:57:00,
2013-02-12 01:12:00,23.8,16.0,30.25,East,84,0.0,-999.0,72,-99.99,,,0.00,weatherlink.com 1.10,2013-02-12 08:12:00,
2013-02-12 01:27:00,23.6,16.0,30.25,East,84,0.0,-999.0,72,-99.99,,,0.00,weatherlink.com 1.10,2013-02-12 08:27:00,
2013-02-12 01:42:00,23.5,15.0,30.25,East,84,0.0,-999.0,71,-99.99,,,0.00,weatherlink.com 1.10,2013-02-12 08:42:00,
2013-02-12 01:57:00,23.0,15.0,30.25,East,84,0.0,-999.0,70,-99.99,,,0.00,weatherlink.com 1.10,2013-02-12 08:57:00,
2013-02-12 02:12:00,23.0,15.0,30.26,East,84,0.0,-999.0,70,-99.99,,,0.00,weatherlink.com 1.10,2013-02-12 09:12:00,
2013-02-12 02:27:00,23.3,15.0,30.27,East,84,0.0,-999.0,69,-99.99,,,0.00,weatherlink.com 1.10,2013-02-12 09:27:00,
2013-02-12 02:42:00,24.4,15.0,30.27,SE,138,0.0,-999.0,67,-99.99,,,0.00,weatherlink.com 1.10,2013-02-12 09:42:00,
2013-02-12 02:57:00,24.2,15.0,30.27,SE,138,0.0,-999.0,67,-99.99,,,0.00,weatherlink.com 1.10,2013-02-12 09:57:00,
2013-02-12 03:12:00,24.1,15.0,30.27,SE,138,0.0,-999.0,69,-99.99,,,0.00,weatherlink.com 1.10,2013-02-12 10:12:00,
2013-02-12 03:27:00,23.3,15.0,30.21,SE,138,1.0,-999.0,71,-99.99,,,0.00,weatherlink.com 1.10,2013-02-12 10:27:00,
2013-02-12 03:42:00,23.0,15.0,30.21,SE,138,0.0,-999.0,71,-99.99,,,0.00,weatherlink.com 1.10,2013-02-12 10:42:00,
2013-02-12 03:57:00,22.5,15.0,30.22,SE,138,0.0,-999.0,72,-99.99,,,0.00,weatherlink.com 1.10,2013-02-12 10:57:00,
2013-02-12 04:12:00,21.9,15.0,30.22,SE,138,0.0,-999.0,74,-99.99,,,0.00,weatherlink.com 1.10,2013-02-12 11:12:00,
2013-02-12 04:27:00,21.3,14.0,30.24,SE,138,0.0,-999.0,74,-99.99,,,0.00,weatherlink.com 1.10,2013-02-12 11:27:00,
2013-02-12 04:42:00,20.5,14.0,30.25,SE,138,0.0,-999.0,76,-99.99,,,0.00,weatherlink.com 1.10,2013-02-12 11:42:00,
2013-02-12 04:57:00,19.9,13.0,30.25,SE,138,0.0,-999.0,75,-99.99,,,0.00,weatherlink.com 1.10,2013-02-12 11:57:00,
2013-02-12 05:12:00,19.5,13.0,30.26,SE,138,0.0,-999.0,76,-99.99,,,0.00,weatherlink.com 1.10,2013-02-12 12:12:00,
2013-02-12 05:27:00,19.2,13.0,30.28,SE,138,0.0,-999.0,76,-99.99,,,0.00,weatherlink.com 1.10,2013-02-12 12:27:00,
2013-02-12 05:42:00,19.9,13.0,30.29,SE,138,0.0,-999.0,75,-99.99,,,0.00,weatherlink.com 1.10,2013-02-12 12:42:00,
2013-02-12 05:57:00,20.3,14.0,30.30,SE,138,0.0,-999.0,75,-99.99,,,0.00,weatherlink.com 1.10,2013-02-12 12:57:00,
2013-02-12 06:12:00,19.5,13.0,30.30,SE,138,0.0,-999.0,75,-99.99,,,0.00,weatherlink.com 1.10,2013-02-12 13:12:00,
2013-02-12 06:27:00,19.4,13.0,30.31,SE,138,0.0,-999.0,75,-99.99,,,0.00,weatherlink.com 1.10,2013-02-12 13:27:00,
2013-02-12 06:43:00,19.5,12.0,30.32,SE,138,0.0,-999.0,73,-99.99,,,0.00,weatherlink.com 1.10,2013-02-12 13:43:00,
2013-02-12 06:58:00,20.0,12.0,30.32,SE,138,0.0,-999.0,72,-99.99,,,0.00,weatherlink.com 1.10,2013-02-12 13:58:00,
2013-02-12 07:13:00,20.6,12.0,30.33,SE,138,0.0,-999.0,70,-99.99,,,0.00,weatherlink.com 1.10,2013-02-12 14:13:00,
2013-02-12 07:28:00,20.5,12.0,30.33,SE,138,0.0,-999.0,70,-99.99,,,0.00,weatherlink.com 1.10,2013-02-12 14:28:00,
2013-02-12 07:43:00,20.6,12.0,30.34,SE,138,0.0,-999.0,69,-99.99,,,0.00,weatherlink.com 1.10,2013-02-12 14:43:00,
2013-02-12 07:58:00,22.4,13.0,30.34,ESE,109,0.0,-999.0,66,-99.99,,,0.00,weatherlink.com 1.10,2013-02-12 14:58:00,
2013-02-12 08:13:00,23.6,13.0,30.35,ESE,109,0.0,-999.0,63,-99.99,,,0.00,weatherlink.com 1.10,2013-02-12 15:13:00,
2013-02-12 08:28:00,26.0,14.0,30.34,ESE,109,0.0,-999.0,61,-99.99,,,0.00,weatherlink.com 1.10,2013-02-12 15:28:00,
2013-02-12 08:43:00,27.3,14.0,30.33,ESE,110,0.0,-999.0,58,-99.99,,,0.00,weatherlink.com 1.10,2013-02-12 15:43:00,
2013-02-12 08:58:00,28.7,15.0,30.33,ESE,110,0.0,-999.0,57,-99.99,,,0.00,weatherlink.com 1.10,2013-02-12 15:58:00,
2013-02-12 09:13:00,27.8,15.0,30.34,NNE,19,0.0,-999.0,60,-99.99,,,0.00,weatherlink.com 1.10,2013-02-12 16:13:00,
2013-02-12 09:28:00,28.8,15.0,30.36,NNE,19,0.0,-999.0,57,-99.99,,,0.00,weatherlink.com 1.10,2013-02-12 16:28:00,
2013-02-12 09:43:00,29.5,15.0,30.35,NNE,19,0.0,-999.0,56,-99.99,,,0.00,weatherlink.com 1.10,2013-02-12 16:43:00,
2013-02-12 09:58:00,31.2,16.0,30.34,NNE,20,0.0,-999.0,53,-99.99,,,0.00,weatherlink.com 1.10,2013-02-12 16:58:00,
2013-02-12 10:13:00,32.1,15.0,30.34,SSE,167,0.0,-999.0,49,-99.99,,,0.00,weatherlink.com 1.10,2013-02-12 17:13:00,
2013-02-12 10:28:00,33.1,14.0,30.34,SSE,167,0.0,-999.0,46,-99.99,,,0.00,weatherlink.com 1.10,2013-02-12 17:28:00,
2013-02-12 10:43:00,32.7,14.0,30.33,SW,225,3.0,-999.0,46,-99.99,,,0.00,weatherlink.com 1.10,2013-02-12 17:43:00,
2013-02-12 10:58:00,34.4,13.0,30.32,SSE,163,4.0,-999.0,42,-99.99,,,0.00,weatherlink.com 1.10,2013-02-12 17:58:00,
2013-02-12 11:13:00,34.9,13.0,30.32,East,88,1.0,-999.0,40,-99.99,,,0.00,weatherlink.com 1.10,2013-02-12 18:13:00,
2013-02-12 11:28:00,34.1,11.0,30.31,North,360,2.0,-999.0,38,-99.99,,,0.00,weatherlink.com 1.10,2013-02-12 18:28:00,
2013-02-12 11:43:00,34.7,11.0,30.32,NNW,340,1.0,-999.0,38,-99.99,,,0.00,weatherlink.com 1.10,2013-02-12 18:43:00,
2013-02-12 11:58:00,34.4,11.0,30.30,North,350,0.0,-999.0,38,-99.99,,,0.00,weatherlink.com 1.10,2013-02-12 18:58:00,
2013-02-12 12:13:00,35.0,11.0,30.30,NNW,346,4.0,-999.0,37,-99.99,,,0.00,weatherlink.com 1.10,2013-02-12 19:13:00,
2013-02-12 12:28:00,35.2,11.0,30.30,NNW,345,2.0,-999.0,36,-99.99,,,0.00,weatherlink.com 1.10,2013-02-12 19:28:00,
2013-02-12 12:43:00,35.9,12.0,30.30,NW,321,4.0,-999.0,37,-99.99,,,0.00,weatherlink.com 1.10,2013-02-12 19:43:00,
2013-02-12 12:58:00,36.3,10.0,30.28,West,268,1.0,-999.0,34,-99.99,,,0.00,weatherlink.com 1.10,2013-02-12 19:58:00,
2013-02-12 13:13:00,36.3,10.0,30.28,West,262,3.0,-999.0,34,-99.99,,,0.00,weatherlink.com 1.10,2013-02-12 20:13:00,
2013-02-12 13:28:00,36.6,11.0,30.29,NNW,331,4.0,-999.0,35,-99.99,,,0.00,weatherlink.com 1.10,2013-02-12 20:28:00,
2013-02-12 13:43:00,37.2,10.0,30.27,North,5,2.0,-999.0,33,-99.99,,,0.00,weatherlink.com 1.10,2013-02-12 20:43:00,
2013-02-12 13:58:00,37.0,10.0,30.27,West,264,1.0,-999.0,32,-99.99,,,0.00,weatherlink.com 1.10,2013-02-12 20:58:00,
2013-02-12 14:13:00,37.5,10.0,30.26,NNW,333,5.0,-999.0,32,-99.99,,,0.00,weatherlink.com 1.10,2013-02-12 21:13:00,
2013-02-12 14:28:00,37.8,10.0,30.25,West,275,5.0,-999.0,31,-99.99,,,0.00,weatherlink.com 1.10,2013-02-12 21:28:00,
2013-02-12 14:43:00,38.3,9.0,30.25,WSW,255,4.0,-999.0,30,-99.99,,,0.00,weatherlink.com 1.10,2013-02-12 21:43:00,
2013-02-12 14:58:00,38.9,9.0,30.25,WNW,291,2.0,-999.0,29,-99.99,,,0.00,weatherlink.com 1.10,2013-02-12 21:58:00,
2013-02-12 15:13:00,38.5,9.0,30.25,NNW,327,3.0,-999.0,29,-99.99,,,0.00,weatherlink.com 1.10,2013-02-12 22:13:00,
2013-02-12 15:28:00,38.9,7.0,30.26,SSW,209,0.0,-999.0,27,-99.99,,,0.00,weatherlink.com 1.10,2013-02-12 22:28:00,
2013-02-12 15:43:00,38.8,9.0,30.26,WNW,282,1.0,-999.0,29,-99.99,,,0.00,weatherlink.com 1.10,2013-02-12 22:43:00,
2013-02-12 15:58:00,38.9,8.0,30.26,West,277,3.0,-999.0,28,-99.99,,,0.00,weatherlink.com 1.10,2013-02-12 22:58:00,
2013-02-12 16:13:00,38.9,9.0,30.26,WSW,240,3.0,-999.0,29,-99.99,,,0.00,weatherlink.com 1.10,2013-02-12 23:13:00,
2013-02-12 16:28:00,38.6,8.0,30.27,West,271,3.0,-999.0,28,-99.99,,,0.00,weatherlink.com 1.10,2013-02-12 23:28:00,
2013-02-12 16:44:00,38.5,7.0,30.27,West,271,2.0,-999.0,27,-99.99,,,0.00,weatherlink.com 1.10,2013-02-12 23:44:00,
2013-02-12 16:58:00,38.3,9.0,30.27,West,271,0.0,-999.0,30,-99.99,,,0.00,weatherlink.com 1.10,2013-02-12 23:58:00,
2013-02-12 17:14:00,36.9,9.0,30.27,West,271,1.0,-999.0,32,-99.99,,,0.00,weatherlink.com 1.10,2013-02-13 00:14:00,
2013-02-12 17:29:00,36.0,10.0,30.28,West,271,0.0,-999.0,34,-99.99,,,0.00,weatherlink.com 1.10,2013-02-13 00:29:00,
2013-02-12 17:44:00,35.2,12.0,30.28,West,271,0.0,-999.0,39,-99.99,,,0.00,weatherlink.com 1.10,2013-02-13 00:44:00,
2013-02-12 17:59:00,33.7,14.0,30.29,West,271,0.0,-999.0,44,-99.99,,,0.00,weatherlink.com 1.10,2013-02-13 00:59:00,
2013-02-12 18:14:00,32.5,14.0,30.29,West,271,0.0,-999.0,47,-99.99,,,0.00,weatherlink.com 1.10,2013-02-13 01:14:00,
2013-02-12 18:29:00,-999.0,-99.9,30.30,North,-999,-999.0,-999.0,-999,-99.99,,,0.00,weatherlink.com 1.10,2013-02-13 01:29:00,
2013-02-12 18:44:00,-999.0,-99.9,30.34,North,-999,-999.0,-999.0,-999,-99.99,,,0.00,weatherlink.com 1.10,2013-02-13 01:44:00,
2013-02-12 18:59:00,30.6,16.0,30.34,West,271,0.0,-999.0,54,-99.99,,,0.00,weatherlink.com 1.10,2013-02-13 01:59:00,
2013-02-12 19:14:00,30.1,16.0,30.33,West,271,0.0,-999.0,57,-99.99,,,0.00,weatherlink.com 1.10,2013-02-13 02:14:00,
2013-02-12 19:29:00,29.5,17.0,30.32,West,271,0.0,-999.0,59,-99.99,,,0.00,weatherlink.com 1.10,2013-02-13 02:29:00,
2013-02-12 19:44:00,28.8,16.0,30.33,West,271,0.0,-999.0,60,-99.99,,,0.00,weatherlink.com 1.10,2013-02-13 02:44:00,
2013-02-12 19:59:00,28.4,16.0,30.33,West,271,0.0,-999.0,61,-99.99,,,0.00,weatherlink.com 1.10,2013-02-13 02:59:00,
2013-02-12 20:14:00,28.8,17.0,30.33,South,190,0.0,-999.0,61,-99.99,,,0.00,weatherlink.com 1.10,2013-02-13 03:14:00,
2013-02-12 20:29:00,29.0,17.0,30.30,South,190,0.0,-999.0,62,-99.99,,,0.00,weatherlink.com 1.10,2013-02-13 03:29:00,
2013-02-12 20:44:00,29.1,17.0,30.30,SE,135,0.0,-999.0,62,-99.99,,,0.00,weatherlink.com 1.10,2013-02-13 03:44:00,
2013-02-12 20:59:00,28.8,17.0,30.30,SE,135,0.0,-999.0,62,-99.99,,,0.00,weatherlink.com 1.10,2013-02-13 03:59:00,
2013-02-12 21:14:00,28.2,17.0,30.30,SE,135,0.0,-999.0,62,-99.99,,,0.00,weatherlink.com 1.10,2013-02-13 04:14:00,
2013-02-12 21:29:00,27.9,16.0,30.30,East,88,0.0,-999.0,62,-99.99,,,0.00,weatherlink.com 1.10,2013-02-13 04:29:00,
2013-02-12 21:44:00,27.9,16.0,30.31,East,100,0.0,-999.0,62,-99.99,,,0.00,weatherlink.com 1.10,2013-02-13 04:44:00,
2013-02-12 21:59:00,27.8,16.0,30.31,East,100,0.0,-999.0,62,-99.99,,,0.00,weatherlink.com 1.10,2013-02-13 04:59:00,
2013-02-12 22:14:00,27.3,16.0,30.31,East,100,0.0,-999.0,63,-99.99,,,0.00,weatherlink.com 1.10,2013-02-13 05:14:00,
2013-02-12 22:29:00,26.9,16.0,30.29,East,100,1.0,-999.0,64,-99.99,,,0.00,weatherlink.com 1.10,2013-02-13 05:29:00,
2013-02-12 22:44:00,27.0,16.0,30.29,ESE,104,0.0,-999.0,64,-99.99,,,0.00,weatherlink.com 1.10,2013-02-13 05:44:00,
2013-02-12 22:59:00,27.0,16.0,30.29,ESE,114,3.0,-999.0,64,-99.99,,,0.01,weatherlink.com 1.10,2013-02-13 05:59:00,
2013-02-12 23:14:00,26.9,16.0,30.29,ESE,102,0.0,-999.0,63,-99.99,,,0.00,weatherlink.com 1.10,2013-02-13 06:14:00,
2013-02-12 23:29:00,26.9,16.0,30.29,ESE,102,0.0,-999.0,63,-99.99,,,0.00,weatherlink.com 1.10,2013-02-13 06:29:00,
2013-02-12 23:44:00,26.6,16.0,30.29,ESE,102,0.0,-999.0,64,-99.99,,,0.00,weatherlink.com 1.10,2013-02-13 06:44:00,
2013-02-12 23:59:00,26.0,16.0,30.30,ESE,102,0.0,-999.0,66,-99.99,,,0.00,weatherlink.com 1.10,2013-02-13 06:59:00,